sensor_id;sensor_type;location;lat;lon;timestamp;pressure;altitude;pressure_sealevel;temperature;humidity
73429;BME280;61643;49.564;17.412;2022-09-20T00:00:26;98163.13;;;8.03;96.44
73429;BME280;61643;49.564;17.412;2022-09-20T00:02:51;98169.56;;;8.02;95.92
73429;BME280;61643;49.564;17.412;2022-09-20T00:05:17;98162.81;;;8.00;95.50
73429;BME280;61643;49.564;17.412;2022-09-20T00:07:43;98165.16;;;7.96;96.13
73429;BME280;61643;49.564;17.412;2022-09-20T00:10:09;98167.28;;;7.94;95.61
73429;BME280;61643;49.564;17.412;2022-09-20T00:12:34;98162.72;;;7.95;96.07
73429;BME280;61643;49.564;17.412;2022-09-20T00:15:00;98168.25;;;7.88;95.64
73429;BME280;61643;49.564;17.412;2022-09-20T00:17:25;98172.94;;;7.81;96.32
73429;BME280;61643;49.564;17.412;2022-09-20T00:19:50;98173.88;;;7.75;96.02
73429;BME280;61643;49.564;17.412;2022-09-20T00:22:16;98170.03;;;7.71;96.44
73429;BME280;61643;49.564;17.412;2022-09-20T00:24:41;98181.84;;;7.70;96.58
73429;BME280;61643;49.564;17.412;2022-09-20T00:27:07;98173.31;;;7.73;96.53
73429;BME280;61643;49.564;17.412;2022-09-20T00:29:32;98170.16;;;7.76;96.21
73429;BME280;61643;49.564;17.412;2022-09-20T00:31:57;98176.00;;;7.73;96.11
73429;BME280;61643;49.564;17.412;2022-09-20T00:34:23;98181.94;;;7.63;95.95
73429;BME280;61643;49.564;17.412;2022-09-20T00:37:07;98184.09;;;7.50;96.36
73429;BME280;61643;49.564;17.412;2022-09-20T00:39:32;98187.72;;;7.55;96.77
73429;BME280;61643;49.564;17.412;2022-09-20T00:41:57;98185.25;;;7.54;96.71
73429;BME280;61643;49.564;17.412;2022-09-20T00:47:23;98194.97;;;7.71;96.36
73429;BME280;61643;49.564;17.412;2022-09-20T00:49:55;98197.44;;;7.73;96.59
73429;BME280;61643;49.564;17.412;2022-09-20T00:52:23;98199.06;;;7.74;96.11
73429;BME280;61643;49.564;17.412;2022-09-20T00:54:48;98195.97;;;7.82;96.39
73429;BME280;61643;49.564;17.412;2022-09-20T00:57:14;98201.13;;;7.83;95.88
73429;BME280;61643;49.564;17.412;2022-09-20T00:59:42;98193.88;;;7.84;96.08
73429;BME280;61643;49.564;17.412;2022-09-20T01:02:31;98187.38;;;7.80;96.05
73429;BME280;61643;49.564;17.412;2022-09-20T01:04:57;98190.06;;;7.80;96.32
73429;BME280;61643;49.564;17.412;2022-09-20T01:07:24;98187.38;;;7.80;96.08
73429;BME280;61643;49.564;17.412;2022-09-20T01:09:50;98195.97;;;7.82;96.12
73429;BME280;61643;49.564;17.412;2022-09-20T01:12:25;98182.25;;;7.78;95.87
73429;BME280;61643;49.564;17.412;2022-09-20T01:14:52;98193.38;;;7.70;95.44
73429;BME280;61643;49.564;17.412;2022-09-20T01:17:20;98182.22;;;7.62;95.74
73429;BME280;61643;49.564;17.412;2022-09-20T01:20:03;98189.09;;;7.58;95.73
73429;BME280;61643;49.564;17.412;2022-09-20T01:22:49;98180.50;;;7.56;95.89
73429;BME280;61643;49.564;17.412;2022-09-20T01:27:50;98186.84;;;7.66;95.53
73429;BME280;61643;49.564;17.412;2022-09-20T01:30:24;98183.53;;;7.48;94.93
73429;BME280;61643;49.564;17.412;2022-09-20T01:33:21;98177.72;;;7.39;95.08
73429;BME280;61643;49.564;17.412;2022-09-20T01:35:52;98180.53;;;7.32;95.08
73429;BME280;61643;49.564;17.412;2022-09-20T01:38:29;98180.22;;;7.06;95.56
73429;BME280;61643;49.564;17.412;2022-09-20T01:48:56;98171.50;;;7.10;95.34
73429;BME280;61643;49.564;17.412;2022-09-20T02:12:18;98183.94;;;7.16;96.08
73429;BME280;61643;49.564;17.412;2022-09-20T02:15:05;98182.00;;;7.12;95.21
73429;BME280;61643;49.564;17.412;2022-09-20T02:17:40;98169.09;;;7.09;94.49
73429;BME280;61643;49.564;17.412;2022-09-20T02:31:11;98183.84;;;6.88;95.17
73429;BME280;61643;49.564;17.412;2022-09-20T02:36:22;98183.16;;;6.92;95.28
73429;BME280;61643;49.564;17.412;2022-09-20T02:41:56;98185.84;;;6.92;95.12
73429;BME280;61643;49.564;17.412;2022-09-20T02:44:51;98192.84;;;6.93;94.66
73429;BME280;61643;49.564;17.412;2022-09-20T02:53:45;98191.97;;;7.16;96.63
73429;BME280;61643;49.564;17.412;2022-09-20T02:56:26;98188.47;;;7.27;96.31
73429;BME280;61643;49.564;17.412;2022-09-20T03:01:58;98192.41;;;7.36;96.82
73429;BME280;61643;49.564;17.412;2022-09-20T03:07:28;98200.09;;;7.45;96.81
73429;BME280;61643;49.564;17.412;2022-09-20T03:10:21;98200.75;;;7.52;97.09
73429;BME280;61643;49.564;17.412;2022-09-20T03:12:54;98208.06;;;7.56;97.01
73429;BME280;61643;49.564;17.412;2022-09-20T03:15:44;98196.22;;;7.52;96.63
73429;BME280;61643;49.564;17.412;2022-09-20T03:23:53;98205.16;;;7.58;96.93
73429;BME280;61643;49.564;17.412;2022-09-20T03:26:36;98210.16;;;7.66;96.84
73429;BME280;61643;49.564;17.412;2022-09-20T03:34:36;98206.28;;;7.73;95.96
73429;BME280;61643;49.564;17.412;2022-09-20T03:42:37;98192.75;;;7.80;96.58
73429;BME280;61643;49.564;17.412;2022-09-20T03:45:33;98198.44;;;7.83;96.35
73429;BME280;61643;49.564;17.412;2022-09-20T03:53:33;98211.19;;;7.93;96.61
73429;BME280;61643;49.564;17.412;2022-09-20T04:02:23;98210.25;;;7.99;96.97
73429;BME280;61643;49.564;17.412;2022-09-20T04:18:42;98211.59;;;8.13;96.37
73429;BME280;61643;49.564;17.412;2022-09-20T04:21:16;98225.56;;;8.15;96.43
73429;BME280;61643;49.564;17.412;2022-09-20T04:24:34;98220.19;;;8.15;96.34
73429;BME280;61643;49.564;17.412;2022-09-20T04:27:15;98218.56;;;8.14;95.87
73429;BME280;61643;49.564;17.412;2022-09-20T04:32:28;98226.91;;;8.01;96.59
73429;BME280;61643;49.564;17.412;2022-09-20T04:35:24;98226.78;;;7.96;96.46
73429;BME280;61643;49.564;17.412;2022-09-20T04:38:16;98219.56;;;7.97;96.11
73429;BME280;61643;49.564;17.412;2022-09-20T05:07:27;98243.78;;;8.02;96.68
73429;BME280;61643;49.564;17.412;2022-09-20T05:21:23;98247.47;;;8.12;95.99
73429;BME280;61643;49.564;17.412;2022-09-20T05:24:00;98254.56;;;8.18;96.49
73429;BME280;61643;49.564;17.412;2022-09-20T05:26:37;98249.94;;;8.14;96.48
73429;BME280;61643;49.564;17.412;2022-09-20T05:29:37;98252.34;;;8.15;96.57
73429;BME280;61643;49.564;17.412;2022-09-20T05:43:53;98267.88;;;8.13;96.91
73429;BME280;61643;49.564;17.412;2022-09-20T05:49:09;98269.50;;;8.14;96.95
73429;BME280;61643;49.564;17.412;2022-09-20T05:54:56;98274.00;;;8.25;97.22
73429;BME280;61643;49.564;17.412;2022-09-20T06:00:19;98269.97;;;8.39;96.75
73429;BME280;61643;49.564;17.412;2022-09-20T06:13:44;98280.28;;;8.59;96.63
73429;BME280;61643;49.564;17.412;2022-09-20T06:16:26;98277.19;;;8.67;95.47
73429;BME280;61643;49.564;17.412;2022-09-20T06:21:54;98282.13;;;8.75;95.37
73429;BME280;61643;49.564;17.412;2022-09-20T06:27:08;98287.03;;;8.78;95.39
73429;BME280;61643;49.564;17.412;2022-09-20T06:29:38;98288.91;;;8.78;96.28
73429;BME280;61643;49.564;17.412;2022-09-20T06:32:04;98292.41;;;8.78;95.72
73429;BME280;61643;49.564;17.412;2022-09-20T06:34:30;98282.00;;;8.82;96.03
73429;BME280;61643;49.564;17.412;2022-09-20T06:37:17;98288.25;;;8.87;95.02
73429;BME280;61643;49.564;17.412;2022-09-20T06:42:51;98288.09;;;8.94;95.32
73429;BME280;61643;49.564;17.412;2022-09-20T06:45:18;98294.09;;;9.01;95.16
73429;BME280;61643;49.564;17.412;2022-09-20T06:47:43;98287.84;;;9.12;95.01
73429;BME280;61643;49.564;17.412;2022-09-20T06:50:14;98294.16;;;9.23;95.17
73429;BME280;61643;49.564;17.412;2022-09-20T06:52:41;98288.16;;;9.32;95.03
73429;BME280;61643;49.564;17.412;2022-09-20T06:55:15;98292.03;;;9.42;94.20
73429;BME280;61643;49.564;17.412;2022-09-20T06:57:43;98296.09;;;9.44;94.30
73429;BME280;61643;49.564;17.412;2022-09-20T07:00:09;98297.22;;;9.48;93.88
73429;BME280;61643;49.564;17.412;2022-09-20T07:02:37;98296.50;;;9.53;93.34
73429;BME280;61643;49.564;17.412;2022-09-20T07:05:03;98295.31;;;9.44;92.51
73429;BME280;61643;49.564;17.412;2022-09-20T07:07:30;98313.34;;;9.48;92.24
73429;BME280;61643;49.564;17.412;2022-09-20T07:09:55;98306.09;;;9.49;93.70
73429;BME280;61643;49.564;17.412;2022-09-20T07:12:22;98308.88;;;9.54;93.40
73429;BME280;61643;49.564;17.412;2022-09-20T07:14:48;98307.41;;;9.46;91.58
73429;BME280;61643;49.564;17.412;2022-09-20T07:17:14;98305.28;;;9.48;92.53
73429;BME280;61643;49.564;17.412;2022-09-20T07:19:40;98310.97;;;9.52;92.59
73429;BME280;61643;49.564;17.412;2022-09-20T07:22:05;98320.66;;;9.53;92.66
73429;BME280;61643;49.564;17.412;2022-09-20T07:24:31;98319.34;;;9.55;93.75
73429;BME280;61643;49.564;17.412;2022-09-20T07:27:01;98313.97;;;9.55;93.79
73429;BME280;61643;49.564;17.412;2022-09-20T07:29:27;98331.00;;;9.61;93.50
73429;BME280;61643;49.564;17.412;2022-09-20T07:31:53;98322.94;;;9.61;93.70
73429;BME280;61643;49.564;17.412;2022-09-20T07:34:18;98329.13;;;9.61;93.03
73429;BME280;61643;49.564;17.412;2022-09-20T07:36:48;98334.75;;;9.60;92.65
73429;BME280;61643;49.564;17.412;2022-09-20T07:39:15;98337.69;;;9.58;92.16
73429;BME280;61643;49.564;17.412;2022-09-20T07:41:40;98338.34;;;9.65;93.13
73429;BME280;61643;49.564;17.412;2022-09-20T07:44:07;98345.06;;;9.68;92.16
73429;BME280;61643;49.564;17.412;2022-09-20T07:46:56;98343.72;;;9.65;91.75
73429;BME280;61643;49.564;17.412;2022-09-20T07:49:23;98344.84;;;9.69;91.42
73429;BME280;61643;49.564;17.412;2022-09-20T07:51:49;98347.84;;;9.73;91.58
73429;BME280;61643;49.564;17.412;2022-09-20T07:54:15;98347.06;;;9.77;90.77
73429;BME280;61643;49.564;17.412;2022-09-20T07:56:41;98349.91;;;9.87;90.68
73429;BME280;61643;49.564;17.412;2022-09-20T07:59:07;98354.31;;;9.94;90.95
73429;BME280;61643;49.564;17.412;2022-09-20T08:01:34;98349.56;;;10.01;90.83
73429;BME280;61643;49.564;17.412;2022-09-20T08:04:00;98360.44;;;10.11;90.68
73429;BME280;61643;49.564;17.412;2022-09-20T08:06:25;98354.00;;;10.12;90.46
73429;BME280;61643;49.564;17.412;2022-09-20T08:08:51;98354.38;;;10.20;89.89
73429;BME280;61643;49.564;17.412;2022-09-20T08:11:19;98359.28;;;10.23;89.95
73429;BME280;61643;49.564;17.412;2022-09-20T08:13:50;98352.63;;;10.31;89.64
73429;BME280;61643;49.564;17.412;2022-09-20T08:16:16;98353.00;;;10.40;90.17
73429;BME280;61643;49.564;17.412;2022-09-20T08:18:46;98356.59;;;10.45;90.24
73429;BME280;61643;49.564;17.412;2022-09-20T08:21:12;98357.94;;;10.48;89.83
73429;BME280;61643;49.564;17.412;2022-09-20T08:23:42;98355.56;;;10.51;90.36
73429;BME280;61643;49.564;17.412;2022-09-20T08:26:10;98361.25;;;10.55;88.95
73429;BME280;61643;49.564;17.412;2022-09-20T08:28:40;98353.31;;;10.43;89.33
73429;BME280;61643;49.564;17.412;2022-09-20T08:31:08;98355.25;;;10.48;89.33
73429;BME280;61643;49.564;17.412;2022-09-20T08:33:34;98350.94;;;10.47;86.95
73429;BME280;61643;49.564;17.412;2022-09-20T08:36:04;98352.66;;;10.58;87.99
73429;BME280;61643;49.564;17.412;2022-09-20T08:38:31;98356.47;;;10.62;86.50
73429;BME280;61643;49.564;17.412;2022-09-20T08:41:00;98357.78;;;10.86;86.59
73429;BME280;61643;49.564;17.412;2022-09-20T08:43:33;98358.03;;;11.11;86.62
73429;BME280;61643;49.564;17.412;2022-09-20T08:46:01;98366.25;;;11.26;86.10
73429;BME280;61643;49.564;17.412;2022-09-20T08:48:29;98366.75;;;11.23;84.45
73429;BME280;61643;49.564;17.412;2022-09-20T08:51:03;98362.66;;;11.16;85.12
73429;BME280;61643;49.564;17.412;2022-09-20T08:53:31;98369.28;;;11.03;83.78
73429;BME280;61643;49.564;17.412;2022-09-20T08:55:57;98363.25;;;10.91;83.98
73429;BME280;61643;49.564;17.412;2022-09-20T08:58:24;98367.09;;;11.00;84.81
73429;BME280;61643;49.564;17.412;2022-09-20T09:00:50;98374.16;;;11.06;85.29
73429;BME280;61643;49.564;17.412;2022-09-20T09:03:16;98367.19;;;11.10;84.07
73429;BME280;61643;49.564;17.412;2022-09-20T09:08:14;98376.97;;;11.21;83.30
73429;BME280;61643;49.564;17.412;2022-09-20T09:10:47;98365.94;;;11.23;81.55
73429;BME280;61643;49.564;17.412;2022-09-20T09:13:24;98365.13;;;11.22;83.55
73429;BME280;61643;49.564;17.412;2022-09-20T09:15:54;98362.94;;;11.19;82.85
73429;BME280;61643;49.564;17.412;2022-09-20T09:18:32;98365.94;;;11.23;84.90
73429;BME280;61643;49.564;17.412;2022-09-20T09:20:58;98351.72;;;11.32;84.01
73429;BME280;61643;49.564;17.412;2022-09-20T09:23:28;98358.53;;;11.40;83.59
73429;BME280;61643;49.564;17.412;2022-09-20T09:26:02;98355.88;;;11.45;82.97
73429;BME280;61643;49.564;17.412;2022-09-20T09:28:28;98352.41;;;11.50;82.71
73429;BME280;61643;49.564;17.412;2022-09-20T09:31:24;98348.72;;;11.66;83.77
73429;BME280;61643;49.564;17.412;2022-09-20T09:33:50;98342.28;;;11.67;81.19
73429;BME280;61643;49.564;17.412;2022-09-20T09:36:20;98348.50;;;11.67;80.89
73429;BME280;61643;49.564;17.412;2022-09-20T09:38:46;98348.81;;;11.76;80.55
73429;BME280;61643;49.564;17.412;2022-09-20T09:41:22;98352.09;;;11.78;80.00
73429;BME280;61643;49.564;17.412;2022-09-20T09:43:57;98339.47;;;11.89;79.13
73429;BME280;61643;49.564;17.412;2022-09-20T09:46:24;98346.22;;;11.86;79.97
73429;BME280;61643;49.564;17.412;2022-09-20T09:49:14;98353.34;;;11.70;80.15
73429;BME280;61643;49.564;17.412;2022-09-20T09:51:58;98363.44;;;11.48;84.61
73429;BME280;61643;49.564;17.412;2022-09-20T09:54:33;98352.94;;;11.15;84.03
73429;BME280;61643;49.564;17.412;2022-09-20T10:07:48;98341.16;;;10.62;90.48
73429;BME280;61643;49.564;17.412;2022-09-20T10:10:35;98342.81;;;10.68;91.77
73429;BME280;61643;49.564;17.412;2022-09-20T10:15:44;98349.88;;;10.74;87.96
73429;BME280;61643;49.564;17.412;2022-09-20T10:18:18;98347.28;;;10.84;89.33
73429;BME280;61643;49.564;17.412;2022-09-20T10:21:06;98343.03;;;10.89;87.35
73429;BME280;61643;49.564;17.412;2022-09-20T10:23:57;98348.22;;;11.00;88.34
73429;BME280;61643;49.564;17.412;2022-09-20T10:37:39;98349.34;;;11.04;87.81
73429;BME280;61643;49.564;17.412;2022-09-20T10:40:41;98350.16;;;11.05;88.45
73429;BME280;61643;49.564;17.412;2022-09-20T10:46:00;98356.97;;;11.12;87.30
73429;BME280;61643;49.564;17.412;2022-09-20T10:48:52;98359.94;;;10.84;81.43
73429;BME280;61643;49.564;17.412;2022-09-20T10:52:00;98357.28;;;10.89;80.49
73429;BME280;61643;49.564;17.412;2022-09-20T11:00:17;98366.84;;;10.48;81.17
73429;BME280;61643;49.564;17.412;2022-09-20T11:08:36;98364.16;;;10.48;80.16
73429;BME280;61643;49.564;17.412;2022-09-20T11:11:12;98363.25;;;10.43;78.74
73429;BME280;61643;49.564;17.412;2022-09-20T11:14:10;98363.53;;;10.41;78.24
73429;BME280;61643;49.564;17.412;2022-09-20T11:21:47;98353.97;;;11.09;78.89
73429;BME280;61643;49.564;17.412;2022-09-20T11:26:52;98358.00;;;11.43;78.99
73429;BME280;61643;49.564;17.412;2022-09-20T11:29:26;98352.47;;;11.60;78.54
73429;BME280;61643;49.564;17.412;2022-09-20T11:32:02;98357.09;;;11.64;78.64
73429;BME280;61643;49.564;17.412;2022-09-20T11:34:33;98354.75;;;11.73;80.31
73429;BME280;61643;49.564;17.412;2022-09-20T11:37:01;98351.22;;;11.72;77.98
73429;BME280;61643;49.564;17.412;2022-09-20T11:39:43;98351.31;;;11.82;77.94
73429;BME280;61643;49.564;17.412;2022-09-20T11:42:17;98348.34;;;11.84;78.39
73429;BME280;61643;49.564;17.412;2022-09-20T11:44:44;98346.69;;;11.78;79.03
73429;BME280;61643;49.564;17.412;2022-09-20T11:47:17;98354.22;;;11.76;76.83
73429;BME280;61643;49.564;17.412;2022-09-20T11:55:33;98363.44;;;11.48;77.76
73429;BME280;61643;49.564;17.412;2022-09-20T11:58:06;98360.34;;;11.66;77.90
73429;BME280;61643;49.564;17.412;2022-09-20T12:00:36;98373.41;;;11.84;77.99
73429;BME280;61643;49.564;17.412;2022-09-20T12:03:05;98359.75;;;12.01;75.00
73429;BME280;61643;49.564;17.412;2022-09-20T12:05:37;98361.66;;;12.06;75.47
73429;BME280;61643;49.564;17.412;2022-09-20T12:08:07;98351.88;;;11.90;73.44
73429;BME280;61643;49.564;17.412;2022-09-20T12:10:41;98357.78;;;11.87;75.08
73429;BME280;61643;49.564;17.412;2022-09-20T12:13:18;98366.91;;;11.80;76.33
73429;BME280;61643;49.564;17.412;2022-09-20T12:16:03;98361.84;;;11.89;80.87
73429;BME280;61643;49.564;17.412;2022-09-20T12:26:11;98377.03;;;12.05;80.75
73429;BME280;61643;49.564;17.412;2022-09-20T12:28:57;98371.06;;;11.98;79.75
73429;BME280;61643;49.564;17.412;2022-09-20T12:39:38;98383.06;;;11.39;71.93
73429;BME280;61643;49.564;17.412;2022-09-20T12:44:40;98387.56;;;11.33;74.74
73429;BME280;61643;49.564;17.412;2022-09-20T12:52:30;98384.53;;;11.56;74.34
73429;BME280;61643;49.564;17.412;2022-09-20T13:01:29;98384.41;;;11.73;70.42
73429;BME280;61643;49.564;17.412;2022-09-20T13:08:50;98378.56;;;11.91;72.12
73429;BME280;61643;49.564;17.412;2022-09-20T13:11:23;98379.00;;;11.73;69.83
73429;BME280;61643;49.564;17.412;2022-09-20T13:14:02;98372.91;;;11.88;71.51
73429;BME280;61643;49.564;17.412;2022-09-20T13:16:56;98374.78;;;11.87;72.01
73429;BME280;61643;49.564;17.412;2022-09-20T13:19:34;98377.84;;;12.01;72.72
73429;BME280;61643;49.564;17.412;2022-09-20T13:22:05;98375.16;;;12.06;69.11
73429;BME280;61643;49.564;17.412;2022-09-20T13:24:36;98375.19;;;12.16;67.86
73429;BME280;61643;49.564;17.412;2022-09-20T13:27:10;98372.22;;;12.12;66.75
73429;BME280;61643;49.564;17.412;2022-09-20T13:29:42;98376.50;;;12.08;68.68
73429;BME280;61643;49.564;17.412;2022-09-20T13:37:35;98388.44;;;12.17;69.80
73429;BME280;61643;49.564;17.412;2022-09-20T13:40:02;98380.06;;;12.14;68.76
73429;BME280;61643;49.564;17.412;2022-09-20T13:42:29;98378.75;;;12.21;69.08
73429;BME280;61643;49.564;17.412;2022-09-20T13:44:57;98379.31;;;12.33;72.15
73429;BME280;61643;49.564;17.412;2022-09-20T13:47:26;98377.75;;;12.43;74.21
73429;BME280;61643;49.564;17.412;2022-09-20T13:49:58;98379.94;;;12.51;74.73
73429;BME280;61643;49.564;17.412;2022-09-20T13:52:28;98389.44;;;12.58;75.47
73429;BME280;61643;49.564;17.412;2022-09-20T13:54:54;98381.84;;;12.60;74.51
73429;BME280;61643;49.564;17.412;2022-09-20T13:57:27;98387.53;;;12.64;75.08
73429;BME280;61643;49.564;17.412;2022-09-20T13:59:54;98386.72;;;12.63;74.22
73429;BME280;61643;49.564;17.412;2022-09-20T14:02:30;98390.22;;;12.54;73.61
73429;BME280;61643;49.564;17.412;2022-09-20T14:04:59;98389.66;;;12.52;74.30
73429;BME280;61643;49.564;17.412;2022-09-20T14:07:26;98391.78;;;12.40;72.37
73429;BME280;61643;49.564;17.412;2022-09-20T14:09:53;98391.66;;;12.19;70.06
73429;BME280;61643;49.564;17.412;2022-09-20T14:12:19;98377.06;;;12.10;70.65
73429;BME280;61643;49.564;17.412;2022-09-20T14:14:46;98391.09;;;12.12;72.00
73429;BME280;61643;49.564;17.412;2022-09-20T14:17:15;98388.41;;;12.07;73.53
73429;BME280;61643;49.564;17.412;2022-09-20T14:19:42;98396.22;;;12.09;74.37
73429;BME280;61643;49.564;17.412;2022-09-20T14:22:24;98402.41;;;12.04;72.84
73429;BME280;61643;49.564;17.412;2022-09-20T14:25:02;98401.31;;;12.00;74.45
73429;BME280;61643;49.564;17.412;2022-09-20T14:27:28;98403.44;;;11.93;73.42
73429;BME280;61643;49.564;17.412;2022-09-20T14:29:55;98400.94;;;11.87;75.16
73429;BME280;61643;49.564;17.412;2022-09-20T14:34:57;98413.03;;;11.79;73.54
73429;BME280;61643;49.564;17.412;2022-09-20T14:38:06;98408.16;;;11.76;72.07
73429;BME280;61643;49.564;17.412;2022-09-20T14:40:41;98404.66;;;11.75;73.25
73429;BME280;61643;49.564;17.412;2022-09-20T14:43:30;98407.53;;;11.69;71.62
73429;BME280;61643;49.564;17.412;2022-09-20T14:46:02;98415.16;;;11.72;75.62
73429;BME280;61643;49.564;17.412;2022-09-20T14:48:36;98407.28;;;11.70;71.96
73429;BME280;61643;49.564;17.412;2022-09-20T14:51:19;98405.16;;;11.72;75.71
73429;BME280;61643;49.564;17.412;2022-09-20T14:56:36;98420.84;;;11.75;75.84
73429;BME280;61643;49.564;17.412;2022-09-20T15:01:34;98412.22;;;11.78;76.06
73429;BME280;61643;49.564;17.412;2022-09-20T15:04:09;98418.44;;;11.79;73.32
73429;BME280;61643;49.564;17.412;2022-09-20T15:06:43;98413.03;;;11.79;73.89
73429;BME280;61643;49.564;17.412;2022-09-20T15:09:11;98427.31;;;11.79;74.68
73429;BME280;61643;49.564;17.412;2022-09-20T15:11:36;98420.03;;;11.75;75.76
73429;BME280;61643;49.564;17.412;2022-09-20T15:14:02;98421.63;;;11.76;76.00
73429;BME280;61643;49.564;17.412;2022-09-20T15:16:27;98421.09;;;11.74;77.18
73429;BME280;61643;49.564;17.412;2022-09-20T15:18:53;98418.06;;;11.70;76.75
73429;BME280;61643;49.564;17.412;2022-09-20T15:21:19;98420.19;;;11.68;78.88
73429;BME280;61643;49.564;17.412;2022-09-20T15:23:45;98410.91;;;11.54;78.23
73429;BME280;61643;49.564;17.412;2022-09-20T15:26:10;98415.81;;;11.57;80.60
73429;BME280;61643;49.564;17.412;2022-09-20T15:28:38;98419.00;;;11.54;81.84
73429;BME280;61643;49.564;17.412;2022-09-20T15:31:03;98429.41;;;11.41;84.81
73429;BME280;61643;49.564;17.412;2022-09-20T15:33:30;98429.63;;;11.34;84.25
73429;BME280;61643;49.564;17.412;2022-09-20T15:36:00;98427.41;;;11.26;84.54
73429;BME280;61643;49.564;17.412;2022-09-20T15:38:26;98425.97;;;11.18;84.51
73429;BME280;61643;49.564;17.412;2022-09-20T15:40:52;98425.94;;;11.13;84.71
73429;BME280;61643;49.564;17.412;2022-09-20T15:43:20;98423.47;;;11.07;85.66
73429;BME280;61643;49.564;17.412;2022-09-20T15:45:58;98424.75;;;11.04;84.92
73429;BME280;61643;49.564;17.412;2022-09-20T15:48:25;98426.91;;;11.02;84.59
73429;BME280;61643;49.564;17.412;2022-09-20T15:51:08;98434.63;;;10.94;85.27
73429;BME280;61643;49.564;17.412;2022-09-20T15:53:37;98437.50;;;10.87;85.95
73429;BME280;61643;49.564;17.412;2022-09-20T15:56:12;98438.53;;;10.81;86.34
73429;BME280;61643;49.564;17.412;2022-09-20T15:58:47;98431.13;;;10.71;86.00
73429;BME280;61643;49.564;17.412;2022-09-20T16:01:13;98443.78;;;10.71;85.55
73429;BME280;61643;49.564;17.412;2022-09-20T16:03:43;98458.31;;;10.70;85.87
73429;BME280;61643;49.564;17.412;2022-09-20T16:06:09;98451.25;;;10.64;86.75
73429;BME280;61643;49.564;17.412;2022-09-20T16:08:37;98465.28;;;10.66;87.12
73429;BME280;61643;49.564;17.412;2022-09-20T16:11:04;98460.41;;;10.63;88.26
73429;BME280;61643;49.564;17.412;2022-09-20T16:13:30;98462.50;;;10.61;89.27
73429;BME280;61643;49.564;17.412;2022-09-20T16:15:57;98464.97;;;10.62;88.44
73429;BME280;61643;49.564;17.412;2022-09-20T16:18:23;98467.66;;;10.62;89.80
73429;BME280;61643;49.564;17.412;2022-09-20T16:21:08;98463.84;;;10.58;90.40
73429;BME280;61643;49.564;17.412;2022-09-20T16:23:39;98481.84;;;10.58;91.49
73429;BME280;61643;49.564;17.412;2022-09-20T16:26:07;98475.91;;;10.56;91.28
73429;BME280;61643;49.564;17.412;2022-09-20T16:28:37;98476.72;;;10.56;89.92
73429;BME280;61643;49.564;17.412;2022-09-20T16:31:02;98465.19;;;10.61;90.34
73429;BME280;61643;49.564;17.412;2022-09-20T16:33:27;98458.25;;;10.65;88.64
73429;BME280;61643;49.564;17.412;2022-09-20T16:35:53;98457.25;;;10.71;87.07
73429;BME280;61643;49.564;17.412;2022-09-20T16:38:20;98467.22;;;10.70;87.27
73429;BME280;61643;49.564;17.412;2022-09-20T16:40:47;98471.66;;;10.60;87.62
73429;BME280;61643;49.564;17.412;2022-09-20T16:43:14;98480.59;;;10.44;87.65
73429;BME280;61643;49.564;17.412;2022-09-20T16:45:46;98479.97;;;10.36;87.06
73429;BME280;61643;49.564;17.412;2022-09-20T16:48:12;98480.19;;;10.35;86.12
73429;BME280;61643;49.564;17.412;2022-09-20T16:50:37;98479.06;;;10.31;86.84
73429;BME280;61643;49.564;17.412;2022-09-20T16:53:03;98490.00;;;10.24;87.37
73429;BME280;61643;49.564;17.412;2022-09-20T16:55:28;98488.69;;;10.10;88.09
73429;BME280;61643;49.564;17.412;2022-09-20T16:57:54;98485.38;;;10.03;88.83
73429;BME280;61643;49.564;17.412;2022-09-20T17:00:20;98495.81;;;10.00;89.08
73429;BME280;61643;49.564;17.412;2022-09-20T17:02:48;98493.63;;;9.97;89.14
73429;BME280;61643;49.564;17.412;2022-09-20T17:05:15;98504.59;;;9.95;89.49
73429;BME280;61643;49.564;17.412;2022-09-20T17:07:40;98502.50;;;9.97;89.60
73429;BME280;61643;49.564;17.412;2022-09-20T17:10:07;98504.47;;;10.02;90.26
73429;BME280;61643;49.564;17.412;2022-09-20T17:12:33;98504.13;;;9.98;90.21
73429;BME280;61643;49.564;17.412;2022-09-20T17:15:06;98502.50;;;9.97;90.45
73429;BME280;61643;49.564;17.412;2022-09-20T17:17:31;98514.81;;;9.93;90.49
73429;BME280;61643;49.564;17.412;2022-09-20T17:19:58;98507.22;;;9.90;90.41
73429;BME280;61643;49.564;17.412;2022-09-20T17:22:24;98514.31;;;9.79;90.97
73429;BME280;61643;49.564;17.412;2022-09-20T17:24:49;98515.03;;;9.75;91.58
73429;BME280;61643;49.564;17.412;2022-09-20T17:27:14;98509.56;;;9.70;92.41
73429;BME280;61643;49.564;17.412;2022-09-20T17:29:40;98511.13;;;9.66;91.34
73429;BME280;61643;49.564;17.412;2022-09-20T17:32:05;98518.78;;;9.57;91.99
73429;BME280;61643;49.564;17.412;2022-09-20T17:34:30;98514.94;;;9.53;91.21
73429;BME280;61643;49.564;17.412;2022-09-20T17:36:56;98515.66;;;9.49;91.44
73429;BME280;61643;49.564;17.412;2022-09-20T17:39:21;98522.19;;;9.53;92.04
73429;BME280;61643;49.564;17.412;2022-09-20T17:41:49;98524.66;;;9.54;91.56
73429;BME280;61643;49.564;17.412;2022-09-20T17:44:15;98523.72;;;9.49;91.76
73429;BME280;61643;49.564;17.412;2022-09-20T17:46:43;98528.91;;;9.38;92.39
73429;BME280;61643;49.564;17.412;2022-09-20T17:49:19;98540.00;;;9.42;91.35
73429;BME280;61643;49.564;17.412;2022-09-20T17:51:47;98543.50;;;9.14;93.51
73429;BME280;61643;49.564;17.412;2022-09-20T17:54:14;98545.00;;;9.22;92.35
73429;BME280;61643;49.564;17.412;2022-09-20T17:56:41;98557.94;;;9.25;92.24
73429;BME280;61643;49.564;17.412;2022-09-20T17:59:08;98563.06;;;9.26;92.55
73429;BME280;61643;49.564;17.412;2022-09-20T18:01:35;98564.19;;;9.14;93.27
73429;BME280;61643;49.564;17.412;2022-09-20T18:04:03;98565.06;;;9.19;93.82
73429;BME280;61643;49.564;17.412;2022-09-20T18:08:57;98572.53;;;9.29;93.48